createdAt,value
2019-04-14T00:00:36.093Z,47.5
2019-04-14T00:01:35.144Z,49.400002
2019-04-14T00:02:35.818Z,49.700001
2019-04-14T00:03:35.282Z,50.799999
2019-04-14T00:04:35.544Z,48.5
2019-04-14T00:05:36.887Z,51.599998
2019-04-14T00:06:37.515Z,50.799999
2019-04-14T00:07:36.548Z,54.299999
2019-04-14T00:08:35.559Z,47.299999
2019-04-14T00:09:35.809Z,54
2019-04-14T00:10:35.744Z,51.200001
2019-04-14T00:11:36.524Z,59
2019-04-14T00:12:35.895Z,60.200001
2019-04-14T00:13:37.013Z,58.5
2019-04-14T00:14:38.182Z,59.099998
2019-04-14T00:15:41.931Z,55.700001
2019-04-14T00:16:38.008Z,56.700001
2019-04-14T00:17:37.115Z,61.200001
2019-04-14T00:18:36.179Z,62.5
2019-04-14T00:19:36.953Z,60.099998
2019-04-14T00:20:36.335Z,59.799999
2019-04-14T00:21:36.750Z,61.099998
2019-04-14T00:22:36.436Z,66.5
2019-04-14T00:23:36.948Z,65.599998
2019-04-14T00:24:36.619Z,65.400002
2019-04-14T00:25:36.970Z,64.400002
2019-04-14T00:26:37.688Z,65.199997
2019-04-14T00:27:38.810Z,67.400002
2019-04-14T00:28:38.261Z,71.199997
2019-04-14T00:29:37.163Z,74.099998
2019-04-14T00:30:37.962Z,70.300003
2019-04-14T00:31:39.101Z,74.300003
2019-04-14T00:32:38.092Z,64.800003
2019-04-14T00:33:37.155Z,60.299999
2019-04-14T00:34:44.315Z,66.5
2019-04-14T00:35:38.474Z,61.700001
2019-04-14T00:36:39.392Z,64.199997
2019-04-14T00:37:38.498Z,78.099998
2019-04-14T00:38:37.521Z,66.900002
2019-04-14T00:39:37.909Z,65.599998
2019-04-14T00:40:37.609Z,69.5
2019-04-14T00:41:44.698Z,56.799999
2019-04-14T00:42:38.820Z,58.599998
2019-04-14T00:43:37.753Z,58.700001
2019-04-14T00:44:38.680Z,59
2019-04-14T00:45:45.154Z,58.599998
2019-04-14T00:46:38.888Z,58.299999
2019-04-14T00:47:49.578Z,61.900002
2019-04-14T00:48:38.966Z,56.5
2019-04-14T00:49:38.036Z,62.5
2019-04-14T00:50:38.773Z,55.200001
2019-04-14T00:51:39.686Z,56.5
2019-04-14T00:52:39.453Z,59.400002
2019-04-14T00:53:38.257Z,51.900002
2019-04-14T00:54:39.274Z,53.400002
2019-04-14T00:55:40.077Z,59.400002
2019-04-14T00:56:39.004Z,57.5
2019-04-14T00:57:39.848Z,52.5
2019-04-14T00:58:38.972Z,54.200001
2019-04-14T00:59:39.831Z,55.599998
2019-04-14T01:00:40.840Z,55.900002
2019-04-14T01:01:39.992Z,54.5
2019-04-14T01:02:39.029Z,50.400002
2019-04-14T01:03:39.429Z,49.299999
2019-04-14T01:04:40.407Z,48.799999
2019-04-14T01:05:41.413Z,48.099998
2019-04-14T01:06:40.466Z,47.599998
2019-04-14T01:07:39.403Z,47
2019-04-14T01:08:40.301Z,49.299999
2019-04-14T01:09:39.622Z,51.099998
2019-04-14T01:10:39.679Z,57.200001
2019-04-14T01:11:40.012Z,51.200001
2019-04-14T01:12:40.910Z,52.799999
2019-04-14T01:13:41.812Z,50.400002
2019-04-14T01:14:40.980Z,52.5
2019-04-14T01:15:50.947Z,45.799999
2019-04-14T01:16:41.090Z,51
2019-04-14T01:17:40.121Z,48.700001
2019-04-14T01:18:40.762Z,48.599998
2019-04-14T01:19:40.253Z,50.400002
2019-04-14T01:20:40.601Z,49.400002
2019-04-14T01:21:41.300Z,50.099998
2019-04-14T01:22:40.515Z,49
2019-04-14T01:23:41.221Z,52.599998
2019-04-14T01:24:40.631Z,55.200001
2019-04-14T01:25:41.009Z,51.5
2019-04-14T01:26:41.979Z,48.900002
2019-04-14T01:27:42.890Z,49.900002
2019-04-14T01:28:41.985Z,49.299999
2019-04-14T01:29:41.009Z,46.299999
2019-04-14T01:30:41.513Z,48.200001
2019-04-14T01:31:42.415Z,49.700001
2019-04-14T01:32:42.174Z,47.700001
2019-04-14T01:33:42.212Z,47.799999
2019-04-14T01:34:43.293Z,52.599998
2019-04-14T01:35:42.303Z,46.700001
2019-04-14T01:36:41.378Z,48.400002
2019-04-14T01:37:41.876Z,48.5
2019-04-14T01:38:42.715Z,47.400002
2019-04-14T01:39:43.500Z,46.099998
2019-04-14T01:40:42.631Z,47.700001
2019-04-14T01:41:41.696Z,47.599998
2019-04-14T01:42:42.049Z,48
2019-04-14T01:43:42.793Z,44.200001
2019-04-14T01:44:43.812Z,44.400002
2019-04-14T01:45:42.944Z,43
2019-04-14T01:46:42.030Z,45.799999
2019-04-14T01:47:42.130Z,45.400002
2019-04-14T01:48:43.182Z,46
2019-04-14T01:49:44.296Z,44.599998
2019-04-14T01:50:43.275Z,45.799999
2019-04-14T01:51:42.337Z,48
2019-04-14T01:52:43.468Z,42.200001
2019-04-14T01:53:44.576Z,41.900002
2019-04-14T01:54:43.572Z,47.299999
2019-04-14T01:55:42.630Z,41.599998
2019-04-14T01:56:42.827Z,45.900002
2019-04-14T01:57:43.776Z,43.5
2019-04-14T01:58:44.685Z,49.299999
2019-04-14T01:59:43.782Z,47.799999
2019-04-14T02:00:43.042Z,47.599998
2019-04-14T02:01:44.047Z,46.299999
2019-04-14T02:02:44.354Z,49.5
2019-04-14T02:03:43.391Z,45.400002
2019-04-14T02:04:44.276Z,46.299999
2019-04-14T02:05:45.290Z,49.5
2019-04-14T02:06:44.449Z,46.900002
2019-04-14T02:07:43.530Z,46.799999
2019-04-14T02:08:43.751Z,48.200001
2019-04-14T02:09:44.626Z,47
2019-04-14T02:10:45.584Z,51.5
2019-04-14T02:11:44.497Z,53
2019-04-14T02:12:45.166Z,50.900002
2019-04-14T02:13:44.887Z,50.200001
2019-04-14T02:14:45.189Z,51.599998
2019-04-14T02:15:44.278Z,49.5
2019-04-14T02:16:48.542Z,58.700001
2019-04-14T02:17:46.029Z,51
2019-04-14T02:18:44.894Z,51.599998
2019-04-14T02:19:44.325Z,53.700001
2019-04-14T02:20:44.698Z,54.799999
2019-04-14T02:21:45.494Z,53.099998
2019-04-14T02:22:46.312Z,54.799999
2019-04-14T02:23:45.334Z,52.700001
2019-04-14T02:24:45.901Z,58.900002
2019-04-14T02:25:45.676Z,52.799999
2019-04-14T02:26:45.801Z,58.400002
2019-04-14T02:27:47.113Z,53.799999
2019-04-14T02:28:46.151Z,53.900002
2019-04-14T02:29:45.135Z,54.099998
2019-04-14T02:30:52.220Z,55.5
2019-04-14T02:32:17.043Z,52.200001
2019-04-14T02:33:13.363Z,55.5
2019-04-14T02:34:15.358Z,57.900002
2019-04-14T02:35:10.644Z,58.099998
2019-04-14T02:37:19.050Z,67.5
2019-04-14T02:39:13.324Z,58.200001
2019-04-14T02:42:25.804Z,60.299999
2019-04-14T02:43:12.397Z,57.299999
2019-04-14T02:44:11.803Z,58.099998
2019-04-14T02:45:18.908Z,57.700001
2019-04-14T02:46:09.661Z,57
2019-04-14T02:47:44.347Z,68.300003
2019-04-14T02:48:25.209Z,60.400002
2019-04-14T02:49:10.991Z,56.599998
2019-04-14T02:50:10.666Z,58.400002
2019-04-14T02:51:12.175Z,56.099998
2019-04-14T02:52:11.408Z,64.699997
2019-04-14T02:53:14.961Z,58.200001
2019-04-14T02:54:11.564Z,62.200001
2019-04-14T02:55:08.248Z,62.599998
2019-04-14T02:56:15.418Z,59.099998
2019-04-14T02:57:16.546Z,64
2019-04-14T02:58:18.112Z,64.199997
2019-04-14T03:00:16.449Z,67
2019-04-14T03:01:37.027Z,60.200001
2019-04-14T03:02:22.727Z,62.700001
2019-04-14T03:03:15.797Z,63.799999
2019-04-14T03:04:10.908Z,61.5
2019-04-14T03:05:09.208Z,63.5
2019-04-14T03:06:11.957Z,59.5
2019-04-14T03:07:14.038Z,62.099998
2019-04-14T03:08:15.123Z,63.799999
2019-04-14T03:09:18.768Z,62.099998
2019-04-14T03:10:10.189Z,64.400002
2019-04-14T03:11:09.083Z,65.900002
2019-04-14T03:12:16.073Z,76
2019-04-14T03:13:12.873Z,62.599998
2019-04-14T03:14:14.945Z,64.199997
2019-04-14T03:15:15.441Z,74.800003
2019-04-14T03:16:13.465Z,65.400002
2019-04-14T03:17:20.899Z,65.5
2019-04-14T03:19:13.679Z,64.900002
2019-04-14T03:20:19.890Z,71.800003
2019-04-14T03:21:26.130Z,64.599998
2019-04-14T03:22:19.584Z,61.900002
2019-04-14T03:23:16.883Z,64.800003
2019-04-14T03:24:08.564Z,66
2019-04-14T03:25:00.279Z,69.099998
2019-04-14T03:26:11.249Z,66.400002
2019-04-14T03:27:13.158Z,72.800003
2019-04-14T03:28:06.562Z,70.699997
2019-04-14T03:29:14.506Z,67.400002
2019-04-14T03:30:32.550Z,66.300003
2019-04-14T03:31:37.151Z,69.800003
2019-04-14T03:32:22.768Z,77.699997
2019-04-14T03:33:31.039Z,67
2019-04-14T03:35:34.675Z,66.900002
2019-04-14T03:36:42.970Z,64.800003
2019-04-14T03:38:18.045Z,70.599998
2019-04-14T03:39:14.805Z,72
2019-04-14T03:40:17.769Z,76.400002
2019-04-14T03:41:16.170Z,71.199997
2019-04-14T03:42:19.572Z,64.400002
2019-04-14T03:43:18.163Z,76.800003
2019-04-14T03:44:16.477Z,67.699997
2019-04-14T03:45:14.009Z,73.300003
2019-04-14T03:46:16.915Z,70.099998
2019-04-14T03:47:19.351Z,67.300003
2019-04-14T03:49:13.686Z,74.5
2019-04-14T03:50:13.321Z,71.699997
2019-04-14T03:51:16.473Z,69.699997
2019-04-14T03:52:12.752Z,69.800003
2019-04-14T03:53:26.075Z,75.699997
2019-04-14T03:54:07.684Z,69.699997
2019-04-14T03:55:05.416Z,68
2019-04-14T03:55:55.181Z,67.800003
2019-04-14T03:56:49.037Z,69.099998
2019-04-14T03:57:47.667Z,71.400002
2019-04-14T03:58:48.622Z,69.199997
2019-04-14T03:59:49.870Z,74.800003
2019-04-14T04:00:49.225Z,70.199997
2019-04-14T04:01:47.966Z,79.300003
2019-04-14T04:02:48.796Z,70.900002
2019-04-14T04:03:47.914Z,73.300003
2019-04-14T04:04:49.005Z,71
2019-04-14T04:05:48.135Z,73.5
2019-04-14T04:06:48.565Z,70.199997
2019-04-14T04:07:48.217Z,68.900002
2019-04-14T04:08:48.512Z,70.699997
2019-04-14T04:09:48.308Z,71.900002
2019-04-14T04:10:48.699Z,70.599998
2019-04-14T04:11:49.719Z,74.800003
2019-04-14T04:12:49.453Z,72.199997
2019-04-14T04:13:48.503Z,68.5
2019-04-14T04:14:48.607Z,80.400002
2019-04-14T04:15:49.733Z,69.300003
2019-04-14T04:16:50.770Z,71.699997
2019-04-14T04:17:49.874Z,74.699997
2019-04-14T04:18:57.788Z,77.199997
2019-04-14T04:19:49.911Z,73.599998
2019-04-14T04:20:50.099Z,80.400002
2019-04-14T04:21:50.893Z,78.900002
2019-04-14T04:22:49.959Z,73.300003
2019-04-14T04:23:49.281Z,75.199997
2019-04-14T04:24:49.990Z,74.400002
2019-04-14T04:25:49.380Z,73.300003
2019-04-14T04:26:49.585Z,75.400002
2019-04-14T04:27:50.455Z,71.5
2019-04-14T04:28:49.738Z,79.5
2019-04-14T04:29:50.544Z,81.199997
2019-04-14T04:30:49.744Z,68.5
2019-04-14T04:31:50.383Z,75.099998
2019-04-14T04:32:49.863Z,80.699997
2019-04-14T04:33:50.150Z,73.699997
2019-04-14T04:34:51.046Z,70.300003
2019-04-14T04:35:52.112Z,71.099998
2019-04-14T04:36:51.117Z,71.599998
2019-04-14T04:37:52.001Z,68.900002
2019-04-14T04:38:50.977Z,69.5
2019-04-14T04:39:50.284Z,68.300003
2019-04-14T04:40:50.744Z,71.300003
2019-04-14T04:41:51.479Z,70.800003
2019-04-14T04:42:52.576Z,70.5
2019-04-14T04:43:51.803Z,68.599998
2019-04-14T04:44:50.949Z,73.900002
2019-04-14T04:45:51.596Z,64
2019-04-14T04:46:52.656Z,72.300003
2019-04-14T04:47:51.650Z,71.300003
2019-04-14T04:48:59.727Z,72
2019-04-14T04:49:51.744Z,79.199997
2019-04-14T04:50:51.878Z,73.400002
2019-04-14T04:51:53.032Z,72.900002
2019-04-14T04:52:52.025Z,67.800003
2019-04-14T04:53:51.028Z,66.099998
2019-04-14T04:54:51.611Z,72.5
2019-04-14T04:55:52.457Z,69.400002
2019-04-14T04:56:51.555Z,68.400002
2019-04-14T04:57:51.016Z,65.599998
2019-04-14T04:58:51.005Z,67.699997
2019-04-14T04:59:51.685Z,68.300003
2019-04-14T05:00:53.005Z,68.099998
2019-04-14T05:01:52.284Z,68.300003
2019-04-14T05:02:52.430Z,67.5
2019-04-14T05:03:53.586Z,66.5
2019-04-14T05:04:52.686Z,65.800003
2019-04-14T05:05:51.507Z,69.400002
2019-04-14T05:06:52.530Z,67.599998
2019-04-14T05:07:53.298Z,67.900002
2019-04-14T05:08:52.278Z,71.300003
2019-04-14T05:09:51.581Z,69.800003
2019-04-14T05:10:52.450Z,61.799999
2019-04-14T05:11:52.655Z,64.699997
2019-04-14T05:12:52.683Z,70.099998
2019-04-14T05:13:51.846Z,65.599998
2019-04-14T05:14:52.336Z,67.599998
2019-04-14T05:15:53.066Z,67.699997
2019-04-14T05:16:53.115Z,69.599998
2019-04-14T05:17:52.277Z,66.699997
2019-04-14T05:18:53.005Z,65.800003
2019-04-14T05:19:52.288Z,64.900002
2019-04-14T05:20:53.200Z,62.5
2019-04-14T05:21:53.781Z,65.5
2019-04-14T05:22:52.920Z,69.599998
2019-04-14T05:23:52.457Z,62
2019-04-14T05:24:52.890Z,66.199997
2019-04-14T05:25:53.741Z,64.099998
2019-04-14T05:26:54.820Z,66.699997
2019-04-14T05:27:53.920Z,60.5
2019-04-14T05:28:52.913Z,57.400002
2019-04-14T05:29:53.622Z,61.700001
2019-04-14T05:30:52.926Z,67.900002
2019-04-14T05:31:53.292Z,66.800003
2019-04-14T05:32:52.915Z,63.400002
2019-04-14T05:33:53.293Z,57.099998
2019-04-14T05:34:54.296Z,56.900002
2019-04-14T05:35:55.183Z,56.799999
2019-04-14T05:36:54.271Z,58.900002
2019-04-14T05:37:53.266Z,60.900002
2019-04-14T05:38:54.024Z,62.799999
2019-04-14T05:39:53.335Z,61.200001
2019-04-14T05:40:53.984Z,60.5
2019-04-14T05:41:59.803Z,58.799999
2019-04-14T05:42:54.450Z,53.200001
2019-04-14T05:43:56.834Z,56.700001
2019-04-14T05:44:55.753Z,57.700001
2019-04-14T05:45:54.724Z,53
2019-04-14T05:46:53.707Z,57.299999
2019-04-14T05:47:54.341Z,58.400002
2019-04-14T05:48:53.886Z,62.599998
2019-04-14T05:49:56.144Z,58.799999
2019-04-14T05:50:55.471Z,58.299999
2019-04-14T05:51:54.437Z,57.099998
2019-04-14T05:52:54.053Z,59.700001
2019-04-14T05:53:54.460Z,56.400002
2019-04-14T05:54:54.287Z,54.099998
2019-04-14T05:55:54.585Z,55.700001
2019-04-14T05:56:54.352Z,51.299999
2019-04-14T05:57:54.633Z,53.599998
2019-04-14T05:58:55.668Z,53.700001
2019-04-14T05:59:55.509Z,55.099998
2019-04-14T06:00:55.706Z,52.900002
2019-04-14T06:01:56.775Z,51.400002
2019-04-14T06:02:55.688Z,51.400002
2019-04-14T06:03:56.003Z,55.099998
2019-04-14T06:04:57.035Z,52.200001
2019-04-14T06:05:56.184Z,50.700001
2019-04-14T06:06:55.210Z,52.400002
2019-04-14T06:07:55.554Z,51
2019-04-14T06:08:55.281Z,49.299999
2019-04-14T06:09:55.850Z,47.599998
2019-04-14T06:10:56.479Z,51.200001
2019-04-14T06:11:55.542Z,50
2019-04-14T06:12:55.542Z,50.099998
2019-04-14T06:13:55.542Z,48.700001
2019-04-14T06:14:55.558Z,47.5
2019-04-14T06:15:55.617Z,50.200001
2019-04-14T06:16:55.615Z,47.200001
2019-04-14T06:17:56.815Z,49
2019-04-14T06:18:55.819Z,47
2019-04-14T06:19:55.833Z,46.200001
2019-04-14T06:20:55.890Z,45.700001
2019-04-14T06:21:55.912Z,46.799999
2019-04-14T06:22:55.905Z,44.700001
2019-04-14T06:23:55.928Z,47.200001
2019-04-14T06:24:55.961Z,47.099998
2019-04-14T06:25:56.035Z,45
2019-04-14T06:26:56.069Z,44.099998
2019-04-14T06:27:56.079Z,45.700001
2019-04-14T06:28:56.077Z,45
2019-04-14T06:29:56.090Z,44.400002
2019-04-14T06:30:56.100Z,43.5
2019-04-14T06:31:56.183Z,44.299999
2019-04-14T06:32:56.190Z,46.099998
2019-04-14T06:33:56.188Z,44
2019-04-14T06:34:56.199Z,43.099998
2019-04-14T06:35:56.229Z,44.400002
2019-04-14T06:36:56.271Z,42
2019-04-14T06:37:56.300Z,40.799999
2019-04-14T06:38:56.339Z,44.900002
2019-04-14T06:39:56.355Z,41.5
2019-04-14T06:40:56.369Z,40.200001
2019-04-14T06:41:56.404Z,40.400002
2019-04-14T06:42:56.429Z,41.900002
2019-04-14T06:43:56.407Z,41.400002
2019-04-14T06:44:56.584Z,39.5
2019-04-14T06:45:56.573Z,41.299999
2019-04-14T06:46:56.613Z,45.799999
2019-04-14T06:47:56.622Z,42.700001
2019-04-14T06:48:56.628Z,44.799999
2019-04-14T06:49:56.626Z,42.299999
2019-04-14T06:50:56.617Z,50.900002
2019-04-14T06:51:56.631Z,41.5
2019-04-14T06:52:56.642Z,44.299999
2019-04-14T06:53:56.659Z,47
2019-04-14T06:54:56.675Z,45.599998
2019-04-14T06:55:56.695Z,43.599998
2019-04-14T06:56:56.747Z,42.200001
2019-04-14T06:57:56.746Z,41.700001
2019-04-14T06:58:56.764Z,41.5
2019-04-14T06:59:56.767Z,40.799999
2019-04-14T07:00:56.781Z,40.099998
2019-04-14T07:01:59.230Z,40.099998
2019-04-14T07:02:57.841Z,37.799999
2019-04-14T07:03:56.857Z,39.200001
2019-04-14T07:04:56.870Z,41
2019-04-14T07:05:56.915Z,38
2019-04-14T07:06:56.957Z,39.799999
2019-04-14T07:07:57.614Z,36.700001
2019-04-14T07:08:57.072Z,38.299999
2019-04-14T07:09:57.147Z,34.099998
2019-04-14T07:10:57.142Z,37.5
2019-04-14T07:11:57.219Z,37.099998
2019-04-14T07:12:57.228Z,34.599998
2019-04-14T07:13:57.230Z,36
2019-04-14T07:14:57.241Z,36.5
2019-04-14T07:15:57.264Z,36
2019-04-14T07:16:57.318Z,37
2019-04-14T07:17:57.336Z,34.900002
2019-04-14T07:18:57.342Z,37.200001
2019-04-14T07:20:02.078Z,35.299999
2019-04-14T07:20:58.476Z,34.400002
2019-04-14T07:21:58.149Z,36.299999
2019-04-14T07:22:57.515Z,32.5
2019-04-14T07:23:57.544Z,34.5
2019-04-14T07:24:57.540Z,34.299999
2019-04-14T07:25:57.567Z,33.299999
2019-04-14T07:26:57.586Z,30.799999
2019-04-14T07:27:57.617Z,32.599998
2019-04-14T07:28:57.615Z,34
2019-04-14T07:29:57.796Z,33.5
2019-04-14T07:30:57.811Z,33.900002
2019-04-14T07:31:57.814Z,34.200001
2019-04-14T07:32:57.880Z,34.5
2019-04-14T07:33:57.907Z,32.400002
2019-04-14T07:34:57.922Z,34.900002
2019-04-14T07:35:57.968Z,32.5
2019-04-14T07:36:58.046Z,33.299999
2019-04-14T07:37:58.106Z,35.400002
2019-04-14T07:38:58.117Z,33.299999
2019-04-14T07:39:58.132Z,34.799999
2019-04-14T07:40:58.270Z,31.299999
2019-04-14T07:41:58.280Z,36
2019-04-14T07:42:58.320Z,31.200001
2019-04-14T07:43:58.375Z,32.700001
2019-04-14T07:44:58.416Z,32.599998
2019-04-14T07:45:58.424Z,30.6
2019-04-14T07:46:58.429Z,33.799999
2019-04-14T07:47:58.450Z,30.700001
2019-04-14T07:48:58.455Z,29.5
2019-04-14T07:49:58.496Z,31.200001
2019-04-14T07:50:58.529Z,30.9
2019-04-14T07:51:58.563Z,30.1
2019-04-14T07:52:58.624Z,28.799999
2019-04-14T07:53:58.641Z,30
2019-04-14T07:54:58.716Z,32
2019-04-14T07:55:59.035Z,29.1
2019-04-14T07:56:58.876Z,29.9
2019-04-14T07:57:58.917Z,30.299999
2019-04-14T07:58:58.926Z,29.4
2019-04-14T07:59:59.001Z,28.5
2019-04-14T08:00:59.036Z,30.5
2019-04-14T08:01:59.049Z,30.200001
2019-04-14T08:02:59.073Z,29
2019-04-14T08:03:59.138Z,28
2019-04-14T08:04:59.148Z,28.4
2019-04-14T08:05:59.170Z,29.6
2019-04-14T08:06:59.214Z,29.6
2019-04-14T08:07:59.237Z,28.799999
2019-04-14T08:08:59.337Z,27.299999
2019-04-14T08:09:59.361Z,27
2019-04-14T08:10:59.392Z,27
2019-04-14T08:11:59.400Z,26.700001
2019-04-14T08:12:59.416Z,25
2019-04-14T08:13:59.507Z,28
2019-04-14T08:14:59.542Z,27.9
2019-04-14T08:15:59.549Z,26.6
2019-04-14T08:16:59.566Z,24.4
2019-04-14T08:17:59.654Z,25.200001
2019-04-14T08:18:59.779Z,23.700001
2019-04-14T08:19:59.781Z,21.6
2019-04-14T08:20:59.849Z,22
2019-04-14T08:21:59.955Z,21.4
2019-04-14T08:22:59.951Z,21.700001
2019-04-14T08:24:00.192Z,21.9
2019-04-14T08:25:00.235Z,22.1
2019-04-14T08:26:00.203Z,20.700001
2019-04-14T08:27:00.234Z,20.700001
2019-04-14T08:28:00.394Z,19.4
2019-04-14T08:29:00.477Z,19.299999
2019-04-14T08:30:00.465Z,20.4
2019-04-14T08:31:00.571Z,20.1
2019-04-14T08:32:00.568Z,20
2019-04-14T08:33:00.714Z,19.700001
2019-04-14T08:34:00.685Z,19.9
2019-04-14T08:35:00.855Z,19.9
2019-04-14T08:36:01.042Z,18.700001
2019-04-14T08:37:01.054Z,19.299999
2019-04-14T08:38:01.055Z,19.5
2019-04-14T08:39:01.073Z,19.5
2019-04-14T08:40:01.153Z,19
2019-04-14T08:41:01.212Z,18
2019-04-14T08:42:01.151Z,18.700001
2019-04-14T08:43:01.308Z,18.9
2019-04-14T08:44:01.449Z,19.1
2019-04-14T08:45:01.546Z,18.700001
2019-04-14T08:46:01.574Z,17.9
2019-04-14T08:47:01.778Z,19.4
2019-04-14T08:48:01.762Z,18.6
2019-04-14T08:49:01.780Z,18.299999
2019-04-14T08:50:01.874Z,18.700001
2019-04-14T08:51:01.897Z,18.700001
2019-04-14T08:52:01.957Z,18.1
2019-04-14T08:53:01.933Z,18.5
2019-04-14T08:54:01.923Z,18.4
2019-04-14T08:55:01.997Z,18.700001
2019-04-14T08:56:02.021Z,18.200001
2019-04-14T08:57:02.105Z,19
2019-04-14T08:58:04.138Z,19.700001
2019-04-14T08:59:03.208Z,19
2019-04-14T09:00:02.413Z,18.6
2019-04-14T09:01:02.404Z,18.700001
2019-04-14T09:02:02.446Z,18.6
2019-04-14T09:03:02.436Z,19.6
2019-04-14T09:04:02.423Z,18.9
2019-04-14T09:05:02.456Z,19.4
2019-04-14T09:06:02.437Z,19.4
2019-04-14T09:07:02.633Z,19.700001
2019-04-14T09:08:02.657Z,17.799999
2019-04-14T09:09:02.658Z,19.4
2019-04-14T09:10:02.752Z,18.6
2019-04-14T09:11:02.758Z,18.5
2019-04-14T09:12:14.727Z,18.1
2019-04-14T09:13:03.873Z,17.5
2019-04-14T09:14:03.030Z,17.4
2019-04-14T09:15:03.020Z,17.9
2019-04-14T09:16:03.025Z,17.299999
2019-04-14T09:17:03.059Z,17
2019-04-14T09:18:03.035Z,16.9
2019-04-14T09:19:07.705Z,17.5
2019-04-14T09:20:04.312Z,17.9
2019-04-14T09:21:03.275Z,17.4
2019-04-14T09:22:03.282Z,16.6
2019-04-14T09:23:03.265Z,17.299999
2019-04-14T09:24:03.260Z,17.4
2019-04-14T09:25:03.294Z,17.700001
2019-04-14T09:26:03.466Z,17.1
2019-04-14T09:27:03.355Z,17.200001
2019-04-14T09:28:03.513Z,16.9
2019-04-14T09:29:03.653Z,17.700001
2019-04-14T09:30:03.637Z,16.5
2019-04-14T09:31:03.718Z,16.4
2019-04-14T09:32:03.734Z,16.1
2019-04-14T09:33:03.786Z,16.9
2019-04-14T09:34:03.852Z,16.4
2019-04-14T09:35:03.859Z,17.5
2019-04-14T09:36:03.935Z,17.299999
2019-04-14T09:37:03.951Z,16.700001
2019-04-14T09:38:03.937Z,15.7
2019-04-14T09:39:03.975Z,16.299999
2019-04-14T09:40:03.952Z,16.6
2019-04-14T09:41:03.983Z,16.799999
2019-04-14T09:42:04.010Z,16.700001
2019-04-14T09:43:03.974Z,17.299999
2019-04-14T09:44:04.129Z,16.200001
2019-04-14T09:45:04.273Z,16.9
2019-04-14T09:46:04.460Z,16
2019-04-14T09:47:04.536Z,16.299999
2019-04-14T09:48:05.472Z,15.9
2019-04-14T09:49:04.644Z,15.9
2019-04-14T09:50:04.637Z,16.299999
2019-04-14T09:51:05.349Z,16.299999
2019-04-14T09:52:04.834Z,16.200001
2019-04-14T09:53:04.874Z,15.7
2019-04-14T09:54:04.851Z,16.200001
2019-04-14T09:55:05.018Z,16.1
2019-04-14T09:56:05.005Z,16.1
2019-04-14T09:57:05.037Z,16.6
2019-04-14T09:58:06.164Z,15.9
2019-04-14T09:59:05.309Z,15.9
2019-04-14T10:00:05.339Z,16.200001
2019-04-14T10:01:05.361Z,16
2019-04-14T10:02:05.516Z,16.9
2019-04-14T10:03:05.647Z,15.2
2019-04-14T10:04:05.657Z,17.6
2019-04-14T10:05:05.664Z,15.2
2019-04-14T10:06:05.678Z,16
2019-04-14T10:07:05.722Z,16.4
2019-04-14T10:08:05.749Z,15.8
2019-04-14T10:09:05.734Z,16.299999
2019-04-14T10:10:05.721Z,15.8
2019-04-14T10:11:05.730Z,15.8
2019-04-14T10:12:05.724Z,15.4
2019-04-14T10:13:05.768Z,15.8
2019-04-14T10:14:05.791Z,15.7
2019-04-14T10:15:05.824Z,15.6
2019-04-14T10:16:05.842Z,15.5
2019-04-14T10:17:05.886Z,16.200001
2019-04-14T10:18:06.148Z,16.4
2019-04-14T10:19:06.164Z,16
2019-04-14T10:20:06.215Z,15.3
2019-04-14T10:21:16.653Z,16.4
2019-04-14T10:22:07.326Z,16
2019-04-14T10:23:06.459Z,15.4
2019-04-14T10:24:06.484Z,15.9
2019-04-14T10:25:06.520Z,15.8
2019-04-14T10:26:06.554Z,15.6
2019-04-14T10:27:06.567Z,15.3
2019-04-14T10:28:06.689Z,15.2
2019-04-14T10:29:06.633Z,14.9
2019-04-14T10:30:06.977Z,15.5
2019-04-14T10:31:06.885Z,14.8
2019-04-14T10:32:06.915Z,15.1
2019-04-14T10:33:06.930Z,15.2
2019-04-14T10:34:09.689Z,15.2
2019-04-14T10:35:07.940Z,15
2019-04-14T10:36:07.119Z,15.3
2019-04-14T10:37:07.134Z,15.1
2019-04-14T10:38:07.147Z,16
2019-04-14T10:39:07.271Z,16.1
2019-04-14T10:40:07.276Z,15.4
2019-04-14T10:41:07.456Z,15.2
2019-04-14T10:42:07.409Z,15.2
2019-04-14T10:43:07.570Z,16.299999
2019-04-14T10:44:07.801Z,15.9
2019-04-14T10:45:07.681Z,41
2019-04-14T10:46:07.663Z,16.700001
2019-04-14T10:47:07.821Z,15.5
2019-04-14T10:48:07.981Z,15.3
2019-04-14T10:49:08.126Z,16.299999
2019-04-14T10:50:08.200Z,15.4
2019-04-14T10:51:08.317Z,15.8
2019-04-14T10:52:08.419Z,15.4
2019-04-14T10:53:08.466Z,19.5
2019-04-14T10:54:08.529Z,16.200001
2019-04-14T10:55:09.534Z,16
2019-04-14T10:56:08.551Z,16.299999
2019-04-14T10:57:08.507Z,17.1
2019-04-14T10:58:08.666Z,16.299999
2019-04-14T10:59:08.871Z,16.6
2019-04-14T11:00:08.801Z,16
2019-04-14T11:01:08.904Z,16.799999
2019-04-14T11:02:08.924Z,16.6
2019-04-14T11:03:08.911Z,16
2019-04-14T11:04:09.083Z,16.6
2019-04-14T11:05:08.896Z,16.200001
2019-04-14T11:06:08.965Z,17.5
2019-04-14T11:07:09.002Z,16.1
2019-04-14T11:08:09.071Z,17.4
2019-04-14T11:09:09.209Z,16.299999
2019-04-14T11:10:09.379Z,16.1
2019-04-14T11:11:09.345Z,16.700001
2019-04-14T11:12:09.363Z,16.6
2019-04-14T11:13:10.367Z,17.1
2019-04-14T11:14:09.494Z,17.299999
2019-04-14T11:15:09.541Z,17.5
2019-04-14T11:16:09.525Z,17.200001
2019-04-14T11:17:09.663Z,17
2019-04-14T11:18:09.671Z,17.4
2019-04-14T11:19:09.854Z,17.200001
2019-04-14T11:20:09.947Z,17.700001
2019-04-14T11:21:09.970Z,18.1
2019-04-14T11:22:10.021Z,18.9
2019-04-14T11:23:10.022Z,17.6
2019-04-14T11:24:10.136Z,17.799999
2019-04-14T11:25:10.333Z,18.200001
2019-04-14T11:26:10.442Z,18.1
2019-04-14T11:27:10.481Z,18.6
2019-04-14T11:28:10.627Z,17.700001
2019-04-14T11:29:10.807Z,19.6
2019-04-14T11:30:10.830Z,19.5
2019-04-14T11:31:10.867Z,19
2019-04-14T11:32:10.908Z,19.200001
2019-04-14T11:33:11.078Z,18.799999
2019-04-14T11:34:11.206Z,19.4
2019-04-14T11:35:11.348Z,18.9
2019-04-14T11:36:11.525Z,20
2019-04-14T11:37:11.487Z,18.4
2019-04-14T11:38:11.633Z,18.6
2019-04-14T11:39:11.711Z,20.299999
2019-04-14T11:40:11.824Z,19.1
2019-04-14T11:41:11.887Z,19.200001
2019-04-14T11:42:12.054Z,18.9
2019-04-14T11:43:12.121Z,18.700001
2019-04-14T11:44:12.155Z,19.200001
2019-04-14T11:45:12.238Z,18.700001
2019-04-14T11:46:12.287Z,18.799999
2019-04-14T11:47:12.329Z,17.299999
2019-04-14T11:48:12.358Z,18.4
2019-04-14T11:49:12.422Z,18.799999
2019-04-14T11:50:12.499Z,18.799999
2019-04-14T11:51:12.497Z,19.299999
2019-04-14T11:52:12.582Z,20
2019-04-14T11:53:12.594Z,17.6
2019-04-14T11:54:12.599Z,18.200001
2019-04-14T11:55:12.649Z,19.9
2019-04-14T11:56:12.818Z,17.799999
2019-04-14T11:57:12.759Z,17.799999
2019-04-14T11:58:12.912Z,19.6
2019-04-14T11:59:13.030Z,18.4
2019-04-14T12:00:14.211Z,21.299999
2019-04-14T12:01:13.306Z,18.4
2019-04-14T12:02:13.353Z,18.5
2019-04-14T12:03:13.414Z,18.4
2019-04-14T12:04:13.362Z,19.299999
2019-04-14T12:05:13.419Z,18.5
2019-04-14T12:06:13.458Z,18
2019-04-14T12:07:13.560Z,18.4
2019-04-14T12:08:13.535Z,18.5
2019-04-14T12:09:13.667Z,17.6
2019-04-14T12:10:13.827Z,18.6
2019-04-14T12:11:14.000Z,18.799999
2019-04-14T12:12:14.049Z,19
2019-04-14T12:13:14.084Z,19.200001
2019-04-14T12:14:14.137Z,19
2019-04-14T12:15:16.481Z,19.700001
2019-04-14T12:16:15.256Z,19.799999
2019-04-14T12:17:14.276Z,19.4
2019-04-14T12:18:14.262Z,19.299999